Time;durP1;ratioP1;P1;durP2;ratioP2;P2;SDS_P1;SDS_P2;PMS_P1;PMS_P2;Temp;Humidity;BMP_temperature;BMP_pressure;BME280_temperature;BME280_humidity;BME280_pressure;Samples;Min_cycle;Max_cycle;Signal;HPM_P1;HPM_P2
2022/05/03 00:01:22;;;;;;;3.17;1.20;;;20.40;48.70;;;;;;4496791;31;20152;-64
2022/05/03 00:04:02;;;;;;;3.67;1.48;;;20.40;48.70;;;;;;4492989;31;20234;-64
2022/05/03 00:06:49;;;;;;;5.30;1.17;;;20.30;48.70;;;;;;4496945;31;20132;-64
2022/05/03 00:09:28;;;;;;;2.45;1.05;;;20.30;48.70;;;;;;4497062;31;20194;-64
2022/05/03 00:12:05;;;;;;;3.78;1.00;;;20.30;48.70;;;;;;4497567;31;20151;-64
2022/05/03 00:14:34;;;;;;;5.28;1.05;;;20.30;48.70;;;;;;4496355;31;20143;-64
2022/05/03 00:17:00;;;;;;;3.45;1.17;;;20.30;48.70;;;;;;4496960;31;20132;-64
2022/05/03 00:19:27;;;;;;;2.42;1.02;;;20.30;48.70;;;;;;4496693;31;20203;-63
2022/05/03 00:21:53;;;;;;;3.25;1.40;;;20.30;48.70;;;;;;4496862;31;20677;-64
2022/05/03 00:24:19;;;;;;;2.90;1.02;;;20.30;48.80;;;;;;4499357;31;20566;-63
2022/05/03 00:26:46;;;;;;;3.08;1.52;;;20.30;48.80;;;;;;4496359;31;20190;-63
2022/05/03 00:29:12;;;;;;;1.85;0.77;;;20.20;48.70;;;;;;4497248;31;20619;-63
2022/05/03 00:31:38;;;;;;;2.35;0.90;;;20.20;48.70;;;;;;4496246;31;20148;-63
2022/05/03 00:34:05;;;;;;;2.45;1.00;;;20.20;48.80;;;;;;4497040;31;20131;-63
2022/05/03 00:36:32;;;;;;;2.70;0.80;;;20.20;48.70;;;;;;4496388;31;20162;-64
2022/05/03 00:38:58;;;;;;;3.00;1.20;;;20.20;48.80;;;;;;4496238;31;20147;-64
2022/05/03 00:41:58;;;;;;;3.58;1.20;;;20.20;48.80;;;;;;4498061;31;20129;-63
2022/05/03 00:47:20;;;;;;;3.80;1.25;;;20.20;48.80;;;;;;4496982;31;20147;-64
2022/05/03 00:50:20;;;;;;;4.30;1.17;;;20.10;48.70;;;;;;4497242;31;20140;-64
2022/05/03 00:52:54;;;;;;;2.42;1.00;;;20.10;48.70;;;;;;4498973;31;20678;-65
2022/05/03 00:55:51;;;;;;;2.63;0.90;;;20.10;48.70;;;;;;4497517;31;20136;-64
2022/05/03 00:58:20;;;;;;;4.28;1.30;;;20.10;48.70;;;;;;4501206;31;20596;-64
2022/05/03 01:01:09;;;;;;;3.20;1.33;;;20.10;48.70;;;;;;4497493;31;20597;-63
2022/05/03 01:03:54;;;;;;;1.98;0.98;;;20.10;48.70;;;;;;4497952;31;20137;-64
2022/05/03 01:06:26;;;;;;;3.95;1.10;;;20.10;48.80;;;;;;4497242;31;20148;-64
2022/05/03 01:09:03;;;;;;;2.63;1.17;;;20.10;48.80;;;;;;4497505;31;20140;-64
2022/05/03 01:12:01;;;;;;;1.77;0.80;;;20.10;48.80;;;;;;4497296;31;20144;-64
2022/05/03 01:14:50;;;;;;;1.48;0.60;;;20.00;48.70;;;;;;4486877;31;20180;-64
2022/05/03 01:17:28;;;;;;;2.15;0.98;;;20.00;48.80;;;;;;4497271;31;20132;-63
2022/05/03 01:20:06;;;;;;;3.25;0.80;;;20.00;48.80;;;;;;4497705;31;20183;-63
2022/05/03 01:22:34;;;;;;;2.50;0.70;;;20.00;48.80;;;;;;4497019;31;20234;-63
2022/05/03 01:25:45;;;;;;;2.25;0.90;;;20.00;48.90;;;;;;4497797;31;20238;-63
2022/05/03 01:28:39;;;;;;;4.57;0.80;;;20.00;48.90;;;;;;4492845;31;20151;-66
2022/05/03 01:31:11;;;;;;;1.60;0.77;;;20.00;49.00;;;;;;4497063;31;20121;-64
2022/05/03 01:33:46;;;;;;;5.00;1.05;;;20.00;49.00;;;;;;4497557;31;20124;-64
2022/05/03 01:36:33;;;;;;;4.43;1.13;;;20.00;49.10;;;;;;4503201;31;20270;-63
2022/05/03 01:39:22;;;;;;;4.88;0.88;;;20.00;49.10;;;;;;4511805;31;20139;-64
2022/05/03 01:42:03;;;;;;;3.55;1.02;;;20.00;49.10;;;;;;4513108;31;20337;-64
2022/05/03 01:44:35;;;;;;;2.53;0.90;;;19.90;49.00;;;;;;4499066;31;20140;-64
2022/05/03 01:47:23;;;;;;;2.63;1.02;;;19.90;49.10;;;;;;4496159;31;20156;-64
2022/05/03 01:50:20;;;;;;;3.50;1.00;;;19.90;49.10;;;;;;4497038;31;20139;-64
2022/05/03 01:53:10;;;;;;;3.72;0.93;;;19.90;49.10;;;;;;4499159;31;20178;-64
2022/05/03 01:56:01;;;;;;;2.05;0.90;;;19.90;49.10;;;;;;4500515;31;20117;-64
2022/05/03 01:58:54;;;;;;;1.45;0.73;;;19.90;49.10;;;;;;4500312;31;20144;-64
2022/05/03 02:01:39;;;;;;;2.28;0.75;;;19.90;49.10;;;;;;4499942;31;20259;-63
2022/05/03 02:04:42;;;;;;;2.08;0.80;;;19.90;49.20;;;;;;4500480;31;20270;-64
2022/05/03 02:07:34;;;;;;;2.08;0.80;;;19.90;49.10;;;;;;4500678;31;20144;-63
2022/05/03 02:10:03;;;;;;;2.35;0.80;;;19.90;49.20;;;;;;4499937;31;20163;-64
2022/05/03 02:12:30;;;;;;;1.33;0.60;;;19.80;49.20;;;;;;4500366;31;20616;-64
2022/05/03 02:15:02;;;;;;;1.80;0.90;;;19.80;49.20;;;;;;4499857;31;20278;-64
2022/05/03 02:17:40;;;;;;;2.75;0.80;;;19.80;49.20;;;;;;4500317;31;20275;-64
2022/05/03 02:20:42;;;;;;;1.75;0.70;;;19.80;49.30;;;;;;4500461;31;20124;-63
2022/05/03 02:23:15;;;;;;;1.45;0.77;;;19.80;49.20;;;;;;4483911;31;20125;-63
2022/05/03 02:26:17;;;;;;;2.22;0.85;;;19.80;49.30;;;;;;4500135;31;20140;-64
2022/05/03 02:28:47;;;;;;;1.90;0.70;;;19.80;49.30;;;;;;4500315;31;20637;-64
2022/05/03 02:31:18;;;;;;;1.17;0.57;;;19.80;49.30;;;;;;4499385;31;20198;-64
2022/05/03 02:33:49;;;;;;;2.25;0.98;;;19.80;49.40;;;;;;4500350;31;20172;-64
2022/05/03 02:36:16;;;;;;;1.23;0.60;;;19.80;49.30;;;;;;4499576;31;20151;-64
2022/05/03 02:39:04;;;;;;;1.83;0.70;;;19.80;49.40;;;;;;4499885;31;20137;-63
2022/05/03 02:41:40;;;;;;;1.95;0.73;;;19.80;49.30;;;;;;4500145;31;20237;-64
2022/05/03 02:44:06;;;;;;;2.08;0.75;;;19.70;49.30;;;;;;4499041;31;20137;-64
2022/05/03 02:46:32;;;;;;;2.05;0.73;;;19.70;49.30;;;;;;4499801;31;20203;-63
2022/05/03 02:49:03;;;;;;;2.03;0.80;;;19.70;49.30;;;;;;4499350;31;20116;-64
2022/05/03 02:51:58;;;;;;;1.45;0.75;;;19.70;49.30;;;;;;4499818;31;20150;-64
2022/05/03 02:54:48;;;;;;;1.85;0.80;;;19.70;49.30;;;;;;4494621;31;20665;-64
2022/05/03 02:57:33;;;;;;;1.67;0.65;;;19.70;49.30;;;;;;4499025;31;20521;-64
2022/05/03 03:03:32;;;;;;;2.28;0.73;;;19.70;49.30;;;;;;4499879;31;20570;-64
2022/05/03 03:06:02;;;;;;;1.75;0.65;;;19.70;49.30;;;;;;4499080;31;20148;-64
2022/05/03 03:08:39;;;;;;;0.70;0.47;;;19.70;49.40;;;;;;4499515;31;20242;-64
2022/05/03 03:11:07;;;;;;;1.13;0.60;;;19.70;49.40;;;;;;4499283;31;20144;-64
2022/05/03 03:13:51;;;;;;;1.33;0.77;;;19.70;49.30;;;;;;4499137;31;20120;-64
2022/05/03 03:16:30;;;;;;;1.67;0.70;;;19.60;49.30;;;;;;4499476;31;20146;-63
2022/05/03 03:18:58;;;;;;;2.75;0.82;;;19.60;49.40;;;;;;4498822;31;20133;-63
2022/05/03 03:21:34;;;;;;;1.05;0.68;;;19.60;49.40;;;;;;4499206;31;20133;-63
2022/05/03 03:24:01;;;;;;;2.30;0.77;;;19.60;49.40;;;;;;4499131;31;20136;-64
2022/05/03 03:26:30;;;;;;;2.15;0.70;;;19.60;49.40;;;;;;4498778;31;20136;-64
2022/05/03 03:29:00;;;;;;;1.48;0.63;;;19.60;49.40;;;;;;4499589;31;20160;-63
2022/05/03 03:31:28;;;;;;;0.80;0.45;;;19.60;49.50;;;;;;4498662;31;20121;-64
2022/05/03 03:33:55;;;;;;;2.00;0.70;;;19.60;49.50;;;;;;4499348;31;20144;-64
2022/05/03 03:36:23;;;;;;;1.42;0.60;;;19.60;49.40;;;;;;4498576;31;20194;-63
2022/05/03 03:38:49;;;;;;;1.20;0.60;;;19.60;49.50;;;;;;4499148;31;20121;-64
2022/05/03 03:41:15;;;;;;;1.50;0.50;;;19.60;49.50;;;;;;4499016;31;20121;-64
2022/05/03 03:43:41;;;;;;;1.02;0.57;;;19.60;49.50;;;;;;4498691;31;20144;-64
2022/05/03 03:46:08;;;;;;;1.42;0.60;;;19.60;49.50;;;;;;4498854;31;20258;-63
2022/05/03 03:48:34;;;;;;;0.90;0.60;;;19.60;49.60;;;;;;4498295;31;20144;-63
2022/05/03 03:51:01;;;;;;;1.13;0.63;;;19.60;49.50;;;;;;4498968;31;20147;-64
2022/05/03 03:53:27;;;;;;;2.40;0.80;;;19.50;49.50;;;;;;4498200;31;20112;-63
2022/05/03 03:55:53;;;;;;;1.55;0.57;;;19.50;49.50;;;;;;4498701;31;20209;-64
2022/05/03 03:58:20;;;;;;;1.90;0.52;;;19.50;49.50;;;;;;4498537;31;20136;-63
2022/05/03 04:00:49;;;;;;;1.02;0.60;;;19.50;49.50;;;;;;4498134;31;20132;-63
2022/05/03 04:03:16;;;;;;;0.98;0.60;;;19.50;49.50;;;;;;4499108;31;20125;-64
2022/05/03 04:05:43;;;;;;;3.03;0.80;;;19.50;49.50;;;;;;4497976;31;20171;-64
2022/05/03 04:08:09;;;;;;;0.80;0.50;;;19.50;49.60;;;;;;4498821;31;20143;-63
2022/05/03 04:10:36;;;;;;;1.52;0.60;;;19.50;49.60;;;;;;4498092;31;20132;-64
2022/05/03 04:13:02;;;;;;;1.10;0.60;;;19.50;49.60;;;;;;4497633;31;20146;-63
2022/05/03 04:15:29;;;;;;;1.83;0.68;;;19.50;49.60;;;;;;4498468;31;20253;-64
2022/05/03 04:17:55;;;;;;;0.88;0.50;;;19.50;49.60;;;;;;4498008;31;20175;-64
2022/05/03 04:20:21;;;;;;;1.08;0.60;;;19.50;49.60;;;;;;4498629;31;20151;-64
2022/05/03 04:22:47;;;;;;;1.63;0.73;;;19.50;49.60;;;;;;4497871;31;20129;-63
2022/05/03 04:25:13;;;;;;;0.80;0.40;;;19.40;49.60;;;;;;4498217;31;20148;-63
2022/05/03 04:27:39;;;;;;;1.85;0.63;;;19.40;49.60;;;;;;4497979;31;20217;-63
2022/05/03 04:30:05;;;;;;;1.10;0.40;;;19.40;49.60;;;;;;4498242;31;20267;-63
2022/05/03 04:32:32;;;;;;;1.35;0.70;;;19.40;49.60;;;;;;4498200;31;20183;-63
2022/05/03 04:34:59;;;;;;;1.30;0.68;;;19.40;49.60;;;;;;4497742;31;20186;-64
2022/05/03 04:37:26;;;;;;;2.13;0.63;;;19.40;49.60;;;;;;4498440;31;20133;-63
2022/05/03 04:39:52;;;;;;;1.80;0.60;;;19.40;49.70;;;;;;4497589;31;20138;-64
2022/05/03 04:42:17;;;;;;;2.78;0.80;;;19.40;49.70;;;;;;4498235;31;20531;-64
2022/05/03 04:44:43;;;;;;;0.80;0.60;;;19.40;49.70;;;;;;4497112;31;20133;-64
2022/05/03 04:47:09;;;;;;;2.15;0.75;;;19.40;49.70;;;;;;4497869;31;20129;-63
2022/05/03 04:49:35;;;;;;;1.02;0.40;;;19.40;49.70;;;;;;4497862;31;20179;-64
2022/05/03 04:52:01;;;;;;;1.20;0.45;;;19.40;49.70;;;;;;4497588;31;20131;-63
2022/05/03 04:54:27;;;;;;;0.65;0.40;;;19.40;49.70;;;;;;4497128;31;20144;-63
2022/05/03 04:57:02;;;;;;;1.55;0.55;;;19.40;49.70;;;;;;4497269;31;20117;-63
2022/05/03 04:59:28;;;;;;;0.90;0.57;;;19.40;49.70;;;;;;4497826;31;20140;-63
2022/05/03 05:01:54;;;;;;;1.55;0.77;;;19.40;49.70;;;;;;4497474;31;20116;-63
2022/05/03 05:04:20;;;;;;;1.42;0.75;;;19.40;49.70;;;;;;4497539;31;20133;-63
2022/05/03 05:06:46;;;;;;;1.27;0.50;;;19.40;49.70;;;;;;4497860;31;20233;-63
2022/05/03 05:09:12;;;;;;;1.10;0.55;;;19.30;49.70;;;;;;4497310;31;20191;-63
2022/05/03 05:11:39;;;;;;;1.88;0.77;;;19.30;50.70;;;;;;4497100;31;20113;-63
2022/05/03 05:14:04;;;;;;;0.77;0.40;;;19.30;49.80;;;;;;4496808;31;20139;-63
2022/05/03 05:16:30;;;;;;;1.30;0.70;;;19.30;49.70;;;;;;4497948;31;20152;-63
2022/05/03 05:18:56;;;;;;;1.48;0.60;;;19.30;50.70;;;;;;4496862;31;20139;-63
2022/05/03 05:21:22;;;;;;;1.05;0.47;;;19.30;49.80;;;;;;4496821;31;20199;-63
2022/05/03 05:23:48;;;;;;;0.77;0.40;;;19.30;49.80;;;;;;4496680;31;20653;-63
2022/05/03 05:26:14;;;;;;;0.80;0.40;;;19.30;49.80;;;;;;4496983;31;20131;-63
2022/05/03 05:28:40;;;;;;;1.48;0.60;;;19.30;49.80;;;;;;4497726;31;20132;-63
2022/05/03 05:31:06;;;;;;;0.65;0.50;;;19.30;49.80;;;;;;4496392;31;20139;-62
2022/05/03 05:33:32;;;;;;;1.50;0.60;;;19.30;49.90;;;;;;4497047;31;20178;-62
2022/05/03 05:35:58;;;;;;;3.08;1.20;;;19.30;49.90;;;;;;4496422;31;20117;-62
2022/05/03 05:38:24;;;;;;;2.42;1.02;;;19.30;49.80;;;;;;4496798;31;20120;-62
2022/05/03 05:40:52;;;;;;;3.90;0.90;;;19.20;49.70;;;;;;4496899;31;20124;-61
2022/05/03 05:43:18;;;;;;;5.00;1.02;;;19.20;49.80;;;;;;4497053;31;20145;-62
2022/05/03 05:45:44;;;;;;;1.85;1.02;;;19.20;50.10;;;;;;4497245;32;20216;-61
2022/05/03 05:48:12;;;;;;;3.05;1.13;;;19.20;50.20;;;;;;4495855;32;20137;-62
2022/05/03 05:50:38;;;;;;;2.05;0.93;;;19.20;50.40;;;;;;4497625;32;20129;-62
2022/05/03 05:55:49;;;;;;;4.60;1.10;;;19.20;50.40;;;;;;4497265;31;20183;-62
2022/05/03 05:58:15;;;;;;;2.75;1.00;;;19.20;50.60;;;;;;4497343;32;20609;-62
2022/05/03 06:00:41;;;;;;;2.08;1.13;;;19.20;50.70;;;;;;4496810;31;20159;-63
2022/05/03 06:03:07;;;;;;;3.40;1.20;;;19.20;50.80;;;;;;4497696;32;20194;-63
2022/05/03 06:05:33;;;;;;;3.65;1.17;;;19.20;50.90;;;;;;4496400;31;20274;-62
2022/05/03 06:08:00;;;;;;;4.10;1.30;;;19.20;51.00;;;;;;4497116;32;20128;-62
2022/05/03 06:10:26;;;;;;;3.72;1.00;;;19.20;51.10;;;;;;4496695;32;20202;-62
2022/05/03 06:12:53;;;;;;;4.65;1.33;;;19.20;51.20;;;;;;4505112;31;20132;-62
2022/05/03 06:15:19;;;;;;;2.38;0.95;;;19.20;51.30;;;;;;4512219;31;20125;-63
2022/05/03 06:17:46;;;;;;;3.70;1.23;;;19.20;51.50;;;;;;4511845;31;20120;-63
2022/05/03 06:20:12;;;;;;;3.00;1.20;;;19.20;51.50;;;;;;4512304;31;20128;-63
2022/05/03 06:22:41;;;;;;;6.72;1.58;;;19.20;51.70;;;;;;4496443;31;20513;-62
2022/05/03 06:25:09;;;;;;;5.35;1.40;;;19.20;51.80;;;;;;4497217;31;20139;-61
2022/05/03 06:27:41;;;;;;;5.05;1.13;;;19.20;52.00;;;;;;4496814;31;20190;-62
2022/05/03 06:30:08;;;;;;;3.63;1.08;;;19.20;52.10;;;;;;4497156;31;20351;-64
2022/05/03 06:32:35;;;;;;;6.30;1.63;;;19.20;52.10;;;;;;4496776;31;20140;-65
2022/05/03 06:35:01;;;;;;;9.55;1.50;;;19.10;52.10;;;;;;4496594;31;20206;-65
2022/05/03 06:37:27;;;;;;;6.00;1.75;;;19.10;52.20;;;;;;4499043;31;20129;-63
2022/05/03 06:39:53;;;;;;;13.23;1.27;;;19.10;52.20;;;;;;4499347;31;20147;-64
2022/05/03 06:42:19;;;;;;;4.05;1.30;;;19.10;52.30;;;;;;4499852;31;20139;-64
2022/05/03 06:44:46;;;;;;;6.47;1.25;;;19.20;52.50;;;;;;4484563;31;20179;-63
2022/05/03 06:47:12;;;;;;;6.82;1.42;;;19.20;52.70;;;;;;4499644;31;20628;-65
2022/05/03 06:49:37;;;;;;;11.75;2.00;;;19.20;52.70;;;;;;4499713;31;20133;-66
2022/05/03 06:52:04;;;;;;;3.53;1.45;;;19.30;52.80;;;;;;4499442;31;20623;-64
2022/05/03 06:54:29;;;;;;;9.38;1.48;;;19.40;52.70;;;;;;4499800;31;20320;-66
2022/05/03 06:56:55;;;;;;;6.20;1.40;;;19.40;52.60;;;;;;4498841;31;20636;-65
2022/05/03 06:59:21;;;;;;;5.60;1.40;;;19.50;52.90;;;;;;4497803;31;20128;-62
2022/05/03 07:01:47;;;;;;;5.15;1.45;;;19.50;52.90;;;;;;4498611;31;20549;-63
2022/05/03 07:04:13;;;;;;;8.07;1.65;;;19.50;52.60;;;;;;4498945;31;20585;-63
2022/05/03 07:06:39;;;;;;;11.98;1.83;;;19.60;52.60;;;;;;4498648;31;20232;-65
2022/05/03 07:09:05;;;;;;;7.18;1.30;;;19.60;52.70;;;;;;4498507;31;20132;-64
2022/05/03 07:11:31;;;;;;;9.10;1.55;;;19.60;52.70;;;;;;4499339;31;20143;-64
2022/05/03 07:13:58;;;;;;;9.75;1.50;;;19.60;52.90;;;;;;4498824;31;20136;-64
2022/05/03 07:16:24;;;;;;;8.32;1.90;;;19.50;52.90;;;;;;4499077;31;20146;-63
2022/05/03 07:24:18;;;;;;;6.15;1.48;;;19.50;52.80;;;;;;4499541;31;20266;-63
2022/05/03 07:26:44;;;;;;;5.28;1.48;;;19.50;52.80;;;;;;4497524;31;20254;-62
2022/05/03 07:29:10;;;;;;;3.80;1.45;;;19.50;52.80;;;;;;4501288;31;20132;-62
2022/05/03 07:31:41;;;;;;;9.07;1.98;;;19.50;52.80;;;;;;4506234;31;20136;-62
2022/05/03 07:34:08;;;;;;;9.02;1.60;;;19.40;52.80;;;;;;4514495;31;20270;-62
2022/05/03 07:36:34;;;;;;;6.25;1.40;;;19.40;52.80;;;;;;4514332;31;20124;-63
2022/05/03 07:39:00;;;;;;;5.63;1.58;;;19.40;52.80;;;;;;4514703;31;20128;-63
2022/05/03 07:41:26;;;;;;;9.95;1.88;;;19.40;52.80;;;;;;4514954;31;20140;-62
2022/05/03 07:43:52;;;;;;;8.02;1.70;;;19.40;52.90;;;;;;4514294;31;20266;-63
2022/05/03 07:46:18;;;;;;;16.95;2.33;;;19.40;52.90;;;;;;4514312;31;20117;-62
2022/05/03 07:48:44;;;;;;;12.77;2.80;;;19.50;53.20;;;;;;4499864;31;20124;-62
2022/05/03 07:51:12;;;;;;;12.35;2.70;;;19.50;53.00;;;;;;4514900;31;20193;-61
2022/05/03 07:53:39;;;;;;;12.25;2.92;;;19.70;52.80;;;;;;4503674;31;23726;-62
2022/05/03 07:56:06;;;;;;;9.63;2.78;;;19.80;52.50;;;;;;4512629;31;20261;-62
2022/05/03 07:58:32;;;;;;;13.38;2.83;;;19.90;52.30;;;;;;4513923;31;20140;-63
2022/05/03 08:00:58;;;;;;;18.40;3.53;;;20.00;53.10;;;;;;4513384;31;20135;-62
2022/05/03 08:03:23;;;;;;;8.98;2.88;;;20.00;51.90;;;;;;4514410;31;20124;-64
2022/05/03 08:05:50;;;;;;;11.40;2.55;;;20.00;51.80;;;;;;4509651;31;20132;-65
2022/05/03 08:08:16;;;;;;;6.53;2.60;;;19.90;51.80;;;;;;4513728;31;20137;-63
2022/05/03 08:10:42;;;;;;;12.15;2.40;;;19.90;52.00;;;;;;4504012;31;20152;-62
2022/05/03 08:13:08;;;;;;;10.48;2.70;;;19.80;52.10;;;;;;4509796;31;20147;-64
2022/05/03 08:15:35;;;;;;;9.25;2.65;;;19.80;52.20;;;;;;4498246;31;20262;-63
2022/05/03 08:18:01;;;;;;;10.63;2.85;;;19.80;52.40;;;;;;4497678;31;20127;-63
2022/05/03 08:20:27;;;;;;;14.23;2.85;;;19.70;52.50;;;;;;4497433;31;20109;-62
2022/05/03 08:22:53;;;;;;;11.98;2.90;;;19.70;52.70;;;;;;4496486;31;20238;-63
2022/05/03 08:25:19;;;;;;;6.82;2.40;;;19.60;52.90;;;;;;4498118;31;20570;-61
2022/05/03 08:27:44;;;;;;;11.25;2.60;;;19.60;52.90;;;;;;4497440;31;20318;-62
2022/05/03 08:30:11;;;;;;;9.18;2.67;;;19.60;52.90;;;;;;4497999;31;20129;-61
2022/05/03 08:32:37;;;;;;;10.05;2.45;;;19.60;53.00;;;;;;4510289;31;20221;-62
2022/05/03 08:35:03;;;;;;;11.80;3.00;;;19.50;53.10;;;;;;4495467;31;20168;-62
2022/05/03 08:42:58;;;;;;;9.38;2.55;;;19.50;53.40;;;;;;4500990;31;20151;-62
2022/05/03 08:45:26;;;;;;;9.73;2.60;;;19.50;53.40;;;;;;4483049;31;20172;-64
2022/05/03 08:47:56;;;;;;;15.98;2.70;;;19.50;53.40;;;;;;4495661;31;20202;-62
2022/05/03 08:50:24;;;;;;;9.25;2.25;;;19.50;53.40;;;;;;4498205;31;20128;-63
2022/05/03 08:52:54;;;;;;;7.07;2.17;;;19.50;53.40;;;;;;4483271;31;20116;-61
2022/05/03 08:55:21;;;;;;;7.50;2.10;;;19.50;53.40;;;;;;4490491;31;25024;-62
2022/05/03 08:57:48;;;;;;;8.88;2.33;;;19.50;53.60;;;;;;4497353;31;20190;-62
2022/05/03 09:00:15;;;;;;;6.05;2.13;;;19.50;53.60;;;;;;4497334;31;20140;-62
2022/05/03 09:02:48;;;;;;;7.93;2.47;;;19.50;53.60;;;;;;4498058;31;20207;-61
2022/05/03 09:05:18;;;;;;;14.07;2.30;;;19.50;53.50;;;;;;4496746;31;20147;-62
2022/05/03 09:07:52;;;;;;;11.57;2.60;;;19.50;53.40;;;;;;4497524;31;20841;-62
2022/05/03 09:10:19;;;;;;;9.48;2.72;;;19.50;53.30;;;;;;4496929;31;20124;-62
2022/05/03 09:12:46;;;;;;;8.63;2.20;;;19.50;53.20;;;;;;4496935;31;20221;-61
2022/05/03 09:15:13;;;;;;;7.50;2.45;;;19.50;53.20;;;;;;4497130;31;20148;-62
2022/05/03 09:17:45;;;;;;;8.43;2.35;;;19.50;53.20;;;;;;4496978;31;20144;-62
2022/05/03 09:25:52;;;;;;;8.70;2.22;;;19.50;52.30;;;;;;4497444;31;20167;-63
2022/05/03 09:28:23;;;;;;;7.82;2.72;;;19.50;52.10;;;;;;4497545;31;20312;-62
2022/05/03 09:30:50;;;;;;;8.23;2.35;;;19.50;51.70;;;;;;4496902;31;20266;-63
2022/05/03 09:33:18;;;;;;;11.45;2.47;;;19.50;51.40;;;;;;4497789;31;20193;-63
2022/05/03 09:35:45;;;;;;;9.80;2.22;;;19.50;50.90;;;;;;4499074;31;20135;-62
2022/05/03 09:38:11;;;;;;;8.38;1.98;;;19.50;50.60;;;;;;4512540;31;20565;-62
2022/05/03 09:40:43;;;;;;;8.30;2.10;;;19.50;50.50;;;;;;4512677;31;20116;-62
2022/05/03 09:43:10;;;;;;;7.93;2.20;;;19.50;50.00;;;;;;4512887;31;20258;-62
2022/05/03 09:45:36;;;;;;;8.82;2.22;;;19.50;49.90;;;;;;4512783;31;20128;-61
2022/05/03 09:48:03;;;;;;;6.80;1.92;;;19.50;49.70;;;;;;4512502;31;20143;-62
2022/05/03 09:50:40;;;;;;;5.53;1.63;;;19.50;49.50;;;;;;4513482;31;20186;-63
2022/05/03 09:53:28;;;;;;;8.07;1.90;;;19.50;49.20;;;;;;4512799;31;20136;-62
2022/05/03 09:55:54;;;;;;;7.30;1.98;;;19.50;48.90;;;;;;4509035;31;21526;-62
2022/05/03 09:58:20;;;;;;;8.15;1.90;;;19.50;49.10;;;;;;4513227;31;20146;-62
2022/05/03 10:00:48;;;;;;;4.90;1.70;;;19.50;48.90;;;;;;4512883;31;20132;-62
2022/05/03 10:03:14;;;;;;;8.68;1.85;;;19.50;48.80;;;;;;4513406;31;20283;-62
2022/05/03 10:05:42;;;;;;;9.00;1.80;;;19.50;48.70;;;;;;4512471;31;20187;-62
2022/05/03 10:08:11;;;;;;;8.75;2.00;;;19.50;48.60;;;;;;4513025;31;20233;-62
2022/05/03 10:10:41;;;;;;;8.80;2.00;;;19.50;49.50;;;;;;4513104;31;20128;-62
2022/05/03 10:13:07;;;;;;;6.43;1.60;;;19.50;48.40;;;;;;4516010;31;20209;-62
2022/05/03 10:21:27;;;;;;;6.05;1.35;;;19.50;48.00;;;;;;4515169;31;20242;-62
2022/05/03 10:24:09;;;;;;;5.75;1.63;;;19.50;48.00;;;;;;4516204;31;20125;-62
2022/05/03 10:26:56;;;;;;;6.38;1.25;;;19.50;47.80;;;;;;4515610;31;20502;-62
2022/05/03 10:29:23;;;;;;;11.65;1.70;;;19.50;47.70;;;;;;4513893;31;20171;-62
2022/05/03 10:32:07;;;;;;;6.55;1.58;;;19.50;47.70;;;;;;4513954;31;20212;-62
2022/05/03 10:34:48;;;;;;;7.93;1.73;;;19.50;47.40;;;;;;4515519;31;20144;-62
2022/05/03 10:37:28;;;;;;;6.47;1.70;;;19.50;47.00;;;;;;4516272;31;20632;-62
2022/05/03 10:39:59;;;;;;;11.05;1.80;;;19.50;46.70;;;;;;4506794;31;20375;-62
2022/05/03 10:42:27;;;;;;;7.63;1.40;;;19.60;46.60;;;;;;4500033;31;20140;-62
2022/05/03 10:44:53;;;;;;;5.95;1.60;;;19.60;46.40;;;;;;4499042;31;20289;-62
2022/05/03 10:47:41;;;;;;;7.78;1.60;;;19.60;46.40;;;;;;4521836;31;20148;-62
2022/05/03 10:50:13;;;;;;;6.05;1.52;;;19.60;46.40;;;;;;4520036;31;20170;-62
2022/05/03 10:52:42;;;;;;;6.38;1.70;;;19.60;46.40;;;;;;4530229;31;20139;-62
2022/05/03 10:55:10;;;;;;;6.25;1.40;;;19.60;47.20;;;;;;4514657;31;22750;-62
2022/05/03 10:58:27;;;;;;;6.70;1.52;;;19.60;46.00;;;;;;4498721;31;20208;-63
2022/05/03 11:01:17;;;;;;;6.07;1.38;;;19.60;45.60;;;;;;4494922;31;20162;-63
2022/05/03 11:03:48;;;;;;;6.10;1.70;;;19.60;45.50;;;;;;4515055;31;20274;-62
2022/05/03 11:06:21;;;;;;;4.65;1.38;;;19.60;45.70;;;;;;4503116;31;20324;-62
2022/05/03 11:09:02;;;;;;;7.30;1.60;;;19.60;45.50;;;;;;4498675;31;20113;-62
2022/05/03 11:11:47;;;;;;;6.53;1.50;;;19.70;45.30;;;;;;4513897;31;20139;-62
2022/05/03 11:14:17;;;;;;;3.38;1.40;;;19.70;45.20;;;;;;4514138;31;20132;-63
2022/05/03 11:16:44;;;;;;;8.90;2.20;;;19.70;45.10;;;;;;4501963;31;20715;-61
2022/05/03 11:19:15;;;;;;;4.28;1.40;;;19.70;45.10;;;;;;4497252;31;20140;-61
2022/05/03 11:21:45;;;;;;;6.43;1.73;;;19.70;44.90;;;;;;4498123;31;20152;-62
2022/05/03 11:24:27;;;;;;;8.75;1.80;;;19.70;44.90;;;;;;4499023;31;20510;-62
2022/05/03 11:27:08;;;;;;;14.23;1.77;;;19.70;44.80;;;;;;4498164;31;20135;-62
2022/05/03 11:29:37;;;;;;;6.32;1.80;;;19.70;44.80;;;;;;4509407;31;20495;-62
2022/05/03 11:32:07;;;;;;;6.60;1.50;;;19.70;44.70;;;;;;4498114;31;20140;-62
2022/05/03 11:34:34;;;;;;;4.38;1.58;;;19.70;44.60;;;;;;4501080;31;20124;-61
2022/05/03 11:37:01;;;;;;;4.43;1.45;;;19.70;44.50;;;;;;4514624;31;20468;-61
2022/05/03 11:39:30;;;;;;;5.70;1.75;;;19.70;44.40;;;;;;4501432;31;20156;-61
2022/05/03 11:41:56;;;;;;;6.20;1.67;;;19.70;44.40;;;;;;4498364;31;20139;-62
2022/05/03 11:44:22;;;;;;;4.25;1.60;;;19.70;44.40;;;;;;4498015;31;20271;-62
2022/05/03 11:46:49;;;;;;;5.95;1.90;;;19.70;44.50;;;;;;4498079;31;20185;-62
2022/05/03 11:49:16;;;;;;;8.35;1.88;;;19.80;44.50;;;;;;4512099;31;20184;-62
2022/05/03 11:57:27;;;;;;;8.45;1.70;;;19.80;44.50;;;;;;4512805;31;20213;-62
2022/05/03 11:59:57;;;;;;;5.13;1.60;;;19.70;44.20;;;;;;4513889;31;20117;-62
2022/05/03 12:02:30;;;;;;;7.82;2.15;;;19.70;44.20;;;;;;4514170;31;20646;-63
2022/05/03 12:05:28;;;;;;;5.95;1.63;;;19.80;44.10;;;;;;4514021;31;20136;-63
2022/05/03 12:07:55;;;;;;;9.43;2.05;;;19.70;44.30;;;;;;4514289;31;20601;-63
2022/05/03 12:10:37;;;;;;;7.15;1.58;;;19.70;44.20;;;;;;4513610;31;20193;-62
2022/05/03 12:13:13;;;;;;;7.93;1.48;;;19.70;43.60;;;;;;4514130;31;20132;-62
2022/05/03 12:15:58;;;;;;;8.63;2.03;;;19.80;43.90;;;;;;4512202;31;20156;-62
2022/05/03 12:18:41;;;;;;;6.30;1.85;;;19.80;44.00;;;;;;4496892;31;20164;-62
2022/05/03 12:21:17;;;;;;;4.82;1.50;;;19.90;43.90;;;;;;4511731;31;20217;-62
2022/05/03 12:23:48;;;;;;;7.18;2.20;;;19.80;43.90;;;;;;4514083;31;20312;-62
2022/05/03 12:26:34;;;;;;;9.52;1.98;;;19.80;44.00;;;;;;4504244;31;20148;-63
2022/05/03 12:29:00;;;;;;;5.57;1.90;;;19.80;44.00;;;;;;4513326;31;20135;-63
2022/05/03 12:31:36;;;;;;;13.73;1.83;;;19.90;43.90;;;;;;4512580;31;20127;-63
2022/05/03 12:34:21;;;;;;;11.40;1.90;;;19.90;43.70;;;;;;4512544;31;20278;-63
2022/05/03 12:36:47;;;;;;;8.52;2.10;;;19.90;43.60;;;;;;4513215;31;20685;-63
2022/05/03 12:39:21;;;;;;;6.75;1.55;;;19.90;43.70;;;;;;4505269;31;20128;-63
2022/05/03 12:42:01;;;;;;;6.78;1.88;;;19.90;43.70;;;;;;4498415;31;20143;-63
2022/05/03 12:44:28;;;;;;;9.40;1.60;;;19.90;43.70;;;;;;4497490;31;20248;-63
2022/05/03 12:47:06;;;;;;;8.57;1.55;;;19.90;43.70;;;;;;4497715;31;20132;-62
2022/05/03 12:49:33;;;;;;;7.47;1.75;;;19.90;43.50;;;;;;4498195;31;20136;-63
2022/05/03 12:52:00;;;;;;;6.50;1.67;;;19.90;43.50;;;;;;4497507;31;20129;-65
2022/05/03 12:54:25;;;;;;;8.63;1.98;;;19.90;43.40;;;;;;4498283;31;20223;-63
2022/05/03 12:59:36;;;;;;;6.20;1.45;;;19.90;43.10;;;;;;4497906;31;20148;-62
2022/05/03 13:02:03;;;;;;;7.68;1.73;;;19.90;43.00;;;;;;4496415;31;20201;-62
2022/05/03 13:04:29;;;;;;;8.75;1.98;;;19.90;42.90;;;;;;4497471;31;20259;-62
2022/05/03 13:06:58;;;;;;;7.53;1.70;;;19.90;43.00;;;;;;4498058;31;20174;-62
2022/05/03 13:09:24;;;;;;;8.68;1.52;;;20.00;43.50;;;;;;4497214;31;20125;-62
2022/05/03 13:11:52;;;;;;;7.22;1.48;;;20.00;43.80;;;;;;4497905;31;20194;-62
2022/05/03 13:14:18;;;;;;;11.40;1.55;;;19.90;44.00;;;;;;4497222;31;20135;-62
2022/05/03 13:16:45;;;;;;;8.70;1.38;;;19.90;44.00;;;;;;4497166;31;20263;-62
2022/05/03 13:19:12;;;;;;;6.75;1.33;;;19.90;44.10;;;;;;4496938;31;20140;-63
2022/05/03 13:21:41;;;;;;;7.25;1.60;;;19.90;44.30;;;;;;4497361;31;20222;-63
2022/05/03 13:24:08;;;;;;;10.40;2.00;;;19.90;44.30;;;;;;4497745;31;20137;-63
2022/05/03 13:26:35;;;;;;;7.03;1.73;;;19.90;44.30;;;;;;4496792;31;20143;-63
2022/05/03 13:29:04;;;;;;;9.25;1.90;;;19.90;44.40;;;;;;4497660;31;20345;-63
2022/05/03 13:31:30;;;;;;;7.32;1.88;;;19.90;44.50;;;;;;4497150;31;20242;-63
2022/05/03 13:33:56;;;;;;;7.97;1.73;;;19.90;44.50;;;;;;4506629;31;20157;-63
2022/05/03 13:41:51;;;;;;;6.25;1.77;;;19.90;44.50;;;;;;4498193;31;20140;-63
2022/05/03 13:44:18;;;;;;;7.78;1.60;;;19.90;44.50;;;;;;4497944;31;20700;-63
2022/05/03 13:46:44;;;;;;;8.88;1.83;;;19.90;44.50;;;;;;4504716;31;20655;-62
2022/05/03 13:49:13;;;;;;;11.73;2.22;;;20.00;44.50;;;;;;4504610;31;20666;-62
2022/05/03 13:51:41;;;;;;;5.43;1.45;;;20.00;44.40;;;;;;4510784;31;20146;-62